sensor_id;sensor_type;location;lat;lon;timestamp;pressure;altitude;pressure_sealevel;temperature;humidity
38852;BME280;24605;50.092;9.182;2024-03-22T00:01:47;153675.09;;;6.40;100.00
38852;BME280;24605;50.092;9.182;2024-03-22T00:04:14;153662.06;;;6.35;100.00
38852;BME280;24605;50.092;9.182;2024-03-22T00:06:44;153676.38;;;6.41;100.00
38852;BME280;24605;50.092;9.182;2024-03-22T00:09:11;153659.50;;;6.34;100.00
38852;BME280;24605;50.092;9.182;2024-03-22T00:11:37;153637.41;;;6.25;100.00
38852;BME280;24605;50.092;9.182;2024-03-22T00:14:03;153625.69;;;6.21;100.00
38852;BME280;24605;50.092;9.182;2024-03-22T00:16:29;153584.13;;;6.04;100.00
38852;BME280;24605;50.092;9.182;2024-03-22T00:18:55;153582.84;;;6.04;100.00
38852;BME280;24605;50.092;9.182;2024-03-22T00:21:22;153567.19;;;5.97;100.00
38852;BME280;24605;50.092;9.182;2024-03-22T00:23:48;153573.72;;;6.00;100.00
38852;BME280;24605;50.092;9.182;2024-03-22T00:26:14;153561.97;;;5.95;100.00
38852;BME280;24605;50.092;9.182;2024-03-22T00:28:41;153478.84;;;5.62;100.00
38852;BME280;24605;50.092;9.182;2024-03-22T00:31:07;153511.31;;;5.75;100.00
38852;BME280;24605;50.092;9.182;2024-03-22T00:33:34;153491.88;;;5.68;100.00
38852;BME280;24605;50.092;9.182;2024-03-22T00:35:59;153497.03;;;5.70;100.00
38852;BME280;24605;50.092;9.182;2024-03-22T00:38:26;153503.56;;;5.72;100.00
38852;BME280;24605;50.092;9.182;2024-03-22T00:40:51;153542.50;;;5.88;100.00
38852;BME280;24605;50.092;9.182;2024-03-22T00:43:22;153576.31;;;6.01;100.00
38852;BME280;24605;50.092;9.182;2024-03-22T00:45:47;153511.31;;;5.75;100.00
38852;BME280;24605;50.092;9.182;2024-03-22T00:48:15;153493.16;;;5.68;100.00
38852;BME280;24605;50.092;9.182;2024-03-22T00:50:41;153463.28;;;5.56;100.00
38852;BME280;24605;50.092;9.182;2024-03-22T00:53:07;153455.47;;;5.53;100.00
38852;BME280;24605;50.092;9.182;2024-03-22T00:55:33;153493.16;;;5.68;100.00
38852;BME280;24605;50.092;9.182;2024-03-22T00:58:00;153489.25;;;5.67;100.00
38852;BME280;24605;50.092;9.182;2024-03-22T01:00:26;153402.25;;;5.32;100.00
38852;BME280;24605;50.092;9.182;2024-03-22T01:02:52;153423.00;;;5.40;100.00
38852;BME280;24605;50.092;9.182;2024-03-22T01:05:18;153404.84;;;5.33;100.00
38852;BME280;24605;50.092;9.182;2024-03-22T01:07:44;153413.94;;;5.37;100.00
38852;BME280;24605;50.092;9.182;2024-03-22T01:10:10;153438.63;;;5.46;100.00
38852;BME280;24605;50.092;9.182;2024-03-22T01:12:38;153476.25;;;5.61;100.00
38852;BME280;24605;50.092;9.182;2024-03-22T01:15:06;153508.72;;;5.74;100.00
38852;BME280;24605;50.092;9.182;2024-03-22T01:17:33;153490.53;;;5.67;100.00
38852;BME280;24605;50.092;9.182;2024-03-22T01:19:59;153517.81;;;5.78;100.00
38852;BME280;24605;50.092;9.182;2024-03-22T01:22:26;153567.19;;;5.97;100.00
38852;BME280;24605;50.092;9.182;2024-03-22T01:24:51;153576.31;;;6.01;100.00
38852;BME280;24605;50.092;9.182;2024-03-22T01:27:18;153573.72;;;6.00;100.00
38852;BME280;24605;50.092;9.182;2024-03-22T01:29:43;153590.63;;;6.07;100.00
38852;BME280;24605;50.092;9.182;2024-03-22T01:32:10;153546.41;;;5.89;100.00
38852;BME280;24605;50.092;9.182;2024-03-22T01:34:36;153550.28;;;5.91;100.00
38852;BME280;24605;50.092;9.182;2024-03-22T01:37:03;153526.94;;;5.82;100.00
38852;BME280;24605;50.092;9.182;2024-03-22T01:39:28;153490.53;;;5.67;100.00
38852;BME280;24605;50.092;9.182;2024-03-22T01:41:55;153467.16;;;5.58;100.00
38852;BME280;24605;50.092;9.182;2024-03-22T01:44:27;153491.88;;;5.68;100.00
38852;BME280;24605;50.092;9.182;2024-03-22T01:46:54;153482.78;;;5.64;100.00
38852;BME280;24605;50.092;9.182;2024-03-22T01:49:21;153482.78;;;5.64;100.00
38852;BME280;24605;50.092;9.182;2024-03-22T01:51:48;153472.38;;;5.60;100.00
38852;BME280;24605;50.092;9.182;2024-03-22T01:54:15;153504.84;;;5.73;100.00
38852;BME280;24605;50.092;9.182;2024-03-22T01:56:42;153534.69;;;5.85;100.00
38852;BME280;24605;50.092;9.182;2024-03-22T01:59:08;153504.84;;;5.73;100.00
38852;BME280;24605;50.092;9.182;2024-03-22T02:01:35;153498.34;;;5.70;100.00
38852;BME280;24605;50.092;9.182;2024-03-22T02:04:02;153486.66;;;5.65;100.00
38852;BME280;24605;50.092;9.182;2024-03-22T02:06:29;153478.84;;;5.62;100.00
38852;BME280;24605;50.092;9.182;2024-03-22T02:08:56;153511.31;;;5.75;100.00
38852;BME280;24605;50.092;9.182;2024-03-22T02:11:24;153420.41;;;5.39;100.00
38852;BME280;24605;50.092;9.182;2024-03-22T02:13:50;153307.47;;;4.94;100.00
38852;BME280;24605;50.092;9.182;2024-03-22T02:16:17;153391.88;;;5.28;100.00
38852;BME280;24605;50.092;9.182;2024-03-22T02:18:42;153382.78;;;5.24;100.00
38852;BME280;24605;50.092;9.182;2024-03-22T02:21:09;153385.34;;;5.25;100.00
38852;BME280;24605;50.092;9.182;2024-03-22T02:23:36;153365.91;;;5.17;100.00
38852;BME280;24605;50.092;9.182;2024-03-22T02:26:04;153355.50;;;5.13;100.00
38852;BME280;24605;50.092;9.182;2024-03-22T02:28:30;153284.09;;;4.85;100.00
38852;BME280;24605;50.092;9.182;2024-03-22T02:30:58;153338.66;;;5.07;100.00
38852;BME280;24605;50.092;9.182;2024-03-22T02:33:23;153350.28;;;5.11;100.00
38852;BME280;24605;50.092;9.182;2024-03-22T02:35:51;153324.38;;;5.01;100.00
38852;BME280;24605;50.092;9.182;2024-03-22T02:38:17;153321.75;;;5.00;100.00
38852;BME280;24605;50.092;9.182;2024-03-22T02:40:44;153367.19;;;5.18;100.00
38852;BME280;24605;50.092;9.182;2024-03-22T02:43:11;153365.91;;;5.17;100.00
38852;BME280;24605;50.092;9.182;2024-03-22T02:45:38;153384.06;;;5.25;100.00
38852;BME280;24605;50.092;9.182;2024-03-22T02:48:03;153436.03;;;5.45;100.00
38852;BME280;24605;50.092;9.182;2024-03-22T02:50:34;153446.38;;;5.49;100.00
38852;BME280;24605;50.092;9.182;2024-03-22T02:53:00;153480.19;;;5.63;100.00
38852;BME280;24605;50.092;9.182;2024-03-22T02:55:27;153465.88;;;5.57;100.00
38852;BME280;24605;50.092;9.182;2024-03-22T02:57:52;153543.78;;;5.88;100.00
38852;BME280;24605;50.092;9.182;2024-03-22T03:00:19;153546.41;;;5.89;100.00
38852;BME280;24605;50.092;9.182;2024-03-22T03:02:47;153552.88;;;5.92;100.00
38852;BME280;24605;50.092;9.182;2024-03-22T03:05:14;153519.13;;;5.78;100.00
38852;BME280;24605;50.092;9.182;2024-03-22T03:07:39;153512.66;;;5.76;100.00
38852;BME280;24605;50.092;9.182;2024-03-22T03:10:07;153506.13;;;5.73;100.00
38852;BME280;24605;50.092;9.182;2024-03-22T03:12:33;153450.25;;;5.51;100.00
38852;BME280;24605;50.092;9.182;2024-03-22T03:14:59;153497.03;;;5.70;100.00
38852;BME280;24605;50.092;9.182;2024-03-22T03:17:25;153493.16;;;5.68;100.00
38852;BME280;24605;50.092;9.182;2024-03-22T03:19:52;153469.75;;;5.59;100.00
38852;BME280;24605;50.092;9.182;2024-03-22T03:22:17;153387.94;;;5.26;100.00
38852;BME280;24605;50.092;9.182;2024-03-22T03:24:44;153467.16;;;5.58;100.00
38852;BME280;24605;50.092;9.182;2024-03-22T03:27:09;153421.72;;;5.40;100.00
38852;BME280;24605;50.092;9.182;2024-03-22T03:29:36;153382.78;;;5.24;100.00
38852;BME280;24605;50.092;9.182;2024-03-22T03:32:01;153426.94;;;5.42;100.00
38852;BME280;24605;50.092;9.182;2024-03-22T03:34:28;153429.50;;;5.43;100.00
38852;BME280;24605;50.092;9.182;2024-03-22T03:36:53;153430.81;;;5.43;100.00
38852;BME280;24605;50.092;9.182;2024-03-22T03:39:20;153413.94;;;5.37;100.00
38852;BME280;24605;50.092;9.182;2024-03-22T03:41:45;153443.78;;;5.48;100.00
38852;BME280;24605;50.092;9.182;2024-03-22T03:44:12;153438.63;;;5.46;100.00
38852;BME280;24605;50.092;9.182;2024-03-22T03:46:38;153446.38;;;5.49;100.00
38852;BME280;24605;50.092;9.182;2024-03-22T03:49:04;153417.81;;;5.38;100.00
38852;BME280;24605;50.092;9.182;2024-03-22T03:51:29;153402.25;;;5.32;100.00
38852;BME280;24605;50.092;9.182;2024-03-22T03:53:56;153403.56;;;5.32;100.00
38852;BME280;24605;50.092;9.182;2024-03-22T03:56:21;153337.31;;;5.06;100.00
38852;BME280;24605;50.092;9.182;2024-03-22T03:58:48;153311.34;;;4.96;100.00
38852;BME280;24605;50.092;9.182;2024-03-22T04:01:13;153385.34;;;5.25;100.00
38852;BME280;24605;50.092;9.182;2024-03-22T04:03:40;153351.59;;;5.12;100.00
38852;BME280;24605;50.092;9.182;2024-03-22T04:06:05;153351.59;;;5.12;100.00
38852;BME280;24605;50.092;9.182;2024-03-22T04:08:32;153332.13;;;5.04;100.00
38852;BME280;24605;50.092;9.182;2024-03-22T04:10:58;153306.16;;;4.94;100.00
38852;BME280;24605;50.092;9.182;2024-03-22T04:13:25;153287.97;;;4.86;100.00
38852;BME280;24605;50.092;9.182;2024-03-22T04:15:52;153324.38;;;5.01;100.00
38852;BME280;24605;50.092;9.182;2024-03-22T04:18:19;153273.69;;;4.81;100.00
38852;BME280;24605;50.092;9.182;2024-03-22T04:20:55;153251.66;;;4.72;100.00
38852;BME280;24605;50.092;9.182;2024-03-22T04:23:22;153323.03;;;5.00;100.00
38852;BME280;24605;50.092;9.182;2024-03-22T04:25:55;153324.38;;;5.01;100.00
38852;BME280;24605;50.092;9.182;2024-03-22T04:28:22;153317.84;;;4.98;100.00
38852;BME280;24605;50.092;9.182;2024-03-22T04:31:05;153397.03;;;5.30;100.00
38852;BME280;24605;50.092;9.182;2024-03-22T04:33:33;153464.56;;;5.57;100.00
38852;BME280;24605;50.092;9.182;2024-03-22T04:35:59;153478.84;;;5.62;100.00
38852;BME280;24605;50.092;9.182;2024-03-22T04:38:27;153497.03;;;5.70;100.00
38852;BME280;24605;50.092;9.182;2024-03-22T04:40:54;153512.66;;;5.76;100.00
38852;BME280;24605;50.092;9.182;2024-03-22T04:43:23;153490.53;;;5.67;100.00
38852;BME280;24605;50.092;9.182;2024-03-22T04:45:51;153451.59;;;5.52;100.00
38852;BME280;24605;50.092;9.182;2024-03-22T04:48:18;153467.16;;;5.58;100.00
38852;BME280;24605;50.092;9.182;2024-03-22T04:50:45;153468.50;;;5.58;100.00
38852;BME280;24605;50.092;9.182;2024-03-22T04:53:11;153355.50;;;5.13;100.00
38852;BME280;24605;50.092;9.182;2024-03-22T04:55:37;153415.25;;;5.37;100.00
38852;BME280;24605;50.092;9.182;2024-03-22T04:58:03;153372.38;;;5.20;100.00
38852;BME280;24605;50.092;9.182;2024-03-22T05:00:29;153372.38;;;5.20;100.00
38852;BME280;24605;50.092;9.182;2024-03-22T05:02:55;153408.72;;;5.34;100.00
38852;BME280;24605;50.092;9.182;2024-03-22T05:05:21;153394.47;;;5.29;100.00
38852;BME280;24605;50.092;9.182;2024-03-22T05:07:47;153458.06;;;5.54;100.00
38852;BME280;24605;50.092;9.182;2024-03-22T05:10:13;153419.13;;;5.39;100.00
38852;BME280;24605;50.092;9.182;2024-03-22T05:12:39;153463.28;;;5.56;100.00
38852;BME280;24605;50.092;9.182;2024-03-22T05:15:06;153469.75;;;5.59;100.00
38852;BME280;24605;50.092;9.182;2024-03-22T05:17:31;153455.47;;;5.53;100.00
38852;BME280;24605;50.092;9.182;2024-03-22T05:19:59;153484.06;;;5.64;100.00
38852;BME280;24605;50.092;9.182;2024-03-22T05:22:24;153482.78;;;5.64;100.00
38852;BME280;24605;50.092;9.182;2024-03-22T05:24:51;153529.50;;;5.83;100.00
38852;BME280;24605;50.092;9.182;2024-03-22T05:27:19;153556.81;;;5.93;100.00
38852;BME280;24605;50.092;9.182;2024-03-22T05:29:46;153528.22;;;5.82;100.00
38852;BME280;24605;50.092;9.182;2024-03-22T05:32:11;153578.91;;;6.02;100.00
38852;BME280;24605;50.092;9.182;2024-03-22T05:34:38;153572.44;;;6.00;100.00
38852;BME280;24605;50.092;9.182;2024-03-22T05:37:04;153598.44;;;6.10;100.00
38852;BME280;24605;50.092;9.182;2024-03-22T05:39:30;153612.72;;;6.16;100.00
38852;BME280;24605;50.092;9.182;2024-03-22T05:41:56;153637.41;;;6.25;100.00
38852;BME280;24605;50.092;9.182;2024-03-22T05:44:23;153659.50;;;6.34;100.00
38852;BME280;24605;50.092;9.182;2024-03-22T05:46:48;153723.16;;;6.59;100.00
38852;BME280;24605;50.092;9.182;2024-03-22T05:49:15;153704.97;;;6.52;100.00
38852;BME280;24605;50.092;9.182;2024-03-22T05:51:41;153754.38;;;6.72;100.00
38852;BME280;24605;50.092;9.182;2024-03-22T05:54:08;153758.25;;;6.73;100.00
38852;BME280;24605;50.092;9.182;2024-03-22T05:56:33;153789.47;;;6.86;100.00
38852;BME280;24605;50.092;9.182;2024-03-22T05:58:59;153803.78;;;6.92;100.00
38852;BME280;24605;50.092;9.182;2024-03-22T06:01:25;153867.47;;;7.17;100.00
38852;BME280;24605;50.092;9.182;2024-03-22T06:03:51;153899.97;;;7.30;100.00
38852;BME280;24605;50.092;9.182;2024-03-22T06:06:17;153855.75;;;7.12;100.00
38852;BME280;24605;50.092;9.182;2024-03-22T06:08:43;153902.56;;;7.31;100.00
38852;BME280;24605;50.092;9.182;2024-03-22T06:11:10;153962.38;;;7.55;100.00
38852;BME280;24605;50.092;9.182;2024-03-22T06:13:37;153950.69;;;7.50;100.00
38852;BME280;24605;50.092;9.182;2024-03-22T06:16:03;154030.03;;;7.81;100.00
38852;BME280;24605;50.092;9.182;2024-03-22T06:18:30;153967.59;;;7.57;100.00
38852;BME280;24605;50.092;9.182;2024-03-22T06:20:56;153975.41;;;7.60;100.00
38852;BME280;24605;50.092;9.182;2024-03-22T06:23:22;153959.81;;;7.53;100.00
38852;BME280;24605;50.092;9.182;2024-03-22T06:25:52;153972.81;;;7.59;100.00
38852;BME280;24605;50.092;9.182;2024-03-22T06:28:18;153954.63;;;7.51;100.00
38852;BME280;24605;50.092;9.182;2024-03-22T06:30:44;153935.09;;;7.44;100.00
38852;BME280;24605;50.092;9.182;2024-03-22T06:33:11;154007.94;;;7.73;100.00
38852;BME280;24605;50.092;9.182;2024-03-22T06:35:36;153937.69;;;7.45;100.00
38852;BME280;24605;50.092;9.182;2024-03-22T06:38:03;153955.88;;;7.52;100.00
38852;BME280;24605;50.092;9.182;2024-03-22T06:40:29;153978.03;;;7.61;100.00
38852;BME280;24605;50.092;9.182;2024-03-22T06:42:56;154000.13;;;7.69;100.00
38852;BME280;24605;50.092;9.182;2024-03-22T06:45:22;154026.13;;;7.80;100.00
38852;BME280;24605;50.092;9.182;2024-03-22T06:47:48;154079.47;;;8.01;100.00
38852;BME280;24605;50.092;9.182;2024-03-22T06:50:14;154145.88;;;8.27;100.00
38852;BME280;24605;50.092;9.182;2024-03-22T06:52:42;154246.13;;;8.67;100.00
38852;BME280;24605;50.092;9.182;2024-03-22T06:55:08;154289.06;;;8.84;100.00
38852;BME280;24605;50.092;9.182;2024-03-22T06:57:34;154309.88;;;8.92;100.00
38852;BME280;24605;50.092;9.182;2024-03-22T07:00:00;154356.78;;;9.11;100.00
38852;BME280;24605;50.092;9.182;2024-03-22T07:02:26;154449.22;;;9.48;100.00
38852;BME280;24605;50.092;9.182;2024-03-22T07:04:52;154532.63;;;9.81;100.00
38852;BME280;24605;50.092;9.182;2024-03-22T07:07:18;154536.50;;;9.82;100.00
38852;BME280;24605;50.092;9.182;2024-03-22T07:09:44;154575.59;;;9.98;100.00
38852;BME280;24605;50.092;9.182;2024-03-22T07:12:11;154572.97;;;9.97;100.00
38852;BME280;24605;50.092;9.182;2024-03-22T07:14:37;154604.25;;;10.09;100.00
38852;BME280;24605;50.092;9.182;2024-03-22T07:17:03;154670.75;;;10.35;100.00
38852;BME280;24605;50.092;9.182;2024-03-22T07:19:29;154712.50;;;10.52;100.00
38852;BME280;24605;50.092;9.182;2024-03-22T07:21:56;154685.09;;;10.41;100.00
38852;BME280;24605;50.092;9.182;2024-03-22T07:24:23;154756.81;;;10.70;100.00
38852;BME280;24605;50.092;9.182;2024-03-22T07:26:49;154754.22;;;10.69;100.00
38852;BME280;24605;50.092;9.182;2024-03-22T07:29:15;154771.16;;;10.75;100.00
38852;BME280;24605;50.092;9.182;2024-03-22T07:31:41;154838.91;;;11.02;100.00
38852;BME280;24605;50.092;9.182;2024-03-22T07:34:07;154752.88;;;10.68;100.00
38852;BME280;24605;50.092;9.182;2024-03-22T07:36:37;154776.34;;;10.77;100.00
38852;BME280;24605;50.092;9.182;2024-03-22T07:39:03;154814.16;;;10.92;100.00
38852;BME280;24605;50.092;9.182;2024-03-22T07:41:32;154841.53;;;11.03;100.00
38852;BME280;24605;50.092;9.182;2024-03-22T07:43:58;154891.09;;;11.23;100.00
38852;BME280;24605;50.092;9.182;2024-03-22T07:46:25;154913.28;;;11.32;100.00
38852;BME280;24605;50.092;9.182;2024-03-22T07:48:50;154927.59;;;11.37;100.00
38852;BME280;24605;50.092;9.182;2024-03-22T07:51:16;154892.44;;;11.23;100.00
38852;BME280;24605;50.092;9.182;2024-03-22T07:53:42;154893.72;;;11.24;100.00
38852;BME280;24605;50.092;9.182;2024-03-22T07:56:08;154878.06;;;11.18;100.00
38852;BME280;24605;50.092;9.182;2024-03-22T07:58:34;154949.78;;;11.46;100.00
38852;BME280;24605;50.092;9.182;2024-03-22T08:01:00;154977.19;;;11.57;100.00
38852;BME280;24605;50.092;9.182;2024-03-22T08:03:25;154977.19;;;11.57;100.00
38852;BME280;24605;50.092;9.182;2024-03-22T08:05:52;154939.34;;;11.42;100.00
38852;BME280;24605;50.092;9.182;2024-03-22T08:08:17;154917.19;;;11.33;100.00
38852;BME280;24605;50.092;9.182;2024-03-22T08:10:44;154932.81;;;11.39;100.00
38852;BME280;24605;50.092;9.182;2024-03-22T08:13:09;154938.06;;;11.41;100.00
38852;BME280;24605;50.092;9.182;2024-03-22T08:15:36;155007.16;;;11.69;100.00
38852;BME280;24605;50.092;9.182;2024-03-22T08:18:02;155051.53;;;11.86;100.00
38852;BME280;24605;50.092;9.182;2024-03-22T08:20:29;155018.91;;;11.73;100.00
38852;BME280;24605;50.092;9.182;2024-03-22T08:22:55;155052.84;;;11.87;100.00
38852;BME280;24605;50.092;9.182;2024-03-22T08:25:22;154994.16;;;11.64;100.00
38852;BME280;24605;50.092;9.182;2024-03-22T08:27:49;155050.25;;;11.86;100.00
38852;BME280;24605;50.092;9.182;2024-03-22T08:30:19;155016.28;;;11.72;100.00
38852;BME280;24605;50.092;9.182;2024-03-22T08:32:45;155124.66;;;12.15;100.00
38852;BME280;24605;50.092;9.182;2024-03-22T08:35:12;155112.91;;;12.11;100.00
38852;BME280;24605;50.092;9.182;2024-03-22T08:37:38;155142.91;;;12.22;100.00
38852;BME280;24605;50.092;9.182;2024-03-22T08:40:04;155133.78;;;12.19;100.00
38852;BME280;24605;50.092;9.182;2024-03-22T08:42:30;155144.25;;;12.23;100.00
38852;BME280;24605;50.092;9.182;2024-03-22T08:44:57;155098.56;;;12.05;100.00
38852;BME280;24605;50.092;9.182;2024-03-22T08:47:22;155172.94;;;12.34;100.00
38852;BME280;24605;50.092;9.182;2024-03-22T08:49:49;155075.00;;;11.96;100.00
38852;BME280;24605;50.092;9.182;2024-03-22T08:52:15;155118.13;;;12.13;100.00
38852;BME280;24605;50.092;9.182;2024-03-22T08:54:41;155092.03;;;12.02;100.00
38852;BME280;24605;50.092;9.182;2024-03-22T08:57:07;155150.78;;;12.26;100.00
38852;BME280;24605;50.092;9.182;2024-03-22T08:59:34;155189.91;;;12.41;100.00
38852;BME280;24605;50.092;9.182;2024-03-22T09:02:01;155167.75;;;12.32;100.00
38852;BME280;24605;50.092;9.182;2024-03-22T09:04:27;155188.63;;;12.41;100.00
38852;BME280;24605;50.092;9.182;2024-03-22T09:06:53;155149.47;;;12.25;100.00
38852;BME280;24605;50.092;9.182;2024-03-22T09:09:20;155179.50;;;12.37;100.00
38852;BME280;24605;50.092;9.182;2024-03-22T09:11:45;155230.38;;;12.57;100.00
38852;BME280;24605;50.092;9.182;2024-03-22T09:14:12;155273.44;;;12.74;100.00
38852;BME280;24605;50.092;9.182;2024-03-22T09:16:37;155303.50;;;12.86;100.00
38852;BME280;24605;50.092;9.182;2024-03-22T09:19:04;155296.94;;;12.83;100.00
38852;BME280;24605;50.092;9.182;2024-03-22T09:21:29;155328.28;;;12.96;100.00
38852;BME280;24605;50.092;9.182;2024-03-22T09:23:57;155200.38;;;12.45;100.00
38852;BME280;24605;50.092;9.182;2024-03-22T09:26:23;155303.50;;;12.86;100.00
38852;BME280;24605;50.092;9.182;2024-03-22T09:28:49;155278.66;;;12.76;100.00
38852;BME280;24605;50.092;9.182;2024-03-22T09:31:15;155296.94;;;12.83;100.00
38852;BME280;24605;50.092;9.182;2024-03-22T09:33:42;155357.03;;;13.07;100.00
38852;BME280;24605;50.092;9.182;2024-03-22T09:36:08;155347.91;;;13.04;100.00
38852;BME280;24605;50.092;9.182;2024-03-22T09:38:35;155475.91;;;13.54;100.00
38852;BME280;24605;50.092;9.182;2024-03-22T09:41:01;155475.91;;;13.54;100.00
38852;BME280;24605;50.092;9.182;2024-03-22T09:43:27;155571.28;;;13.92;100.00
38852;BME280;24605;50.092;9.182;2024-03-22T09:45:54;155632.69;;;14.16;100.00
38852;BME280;24605;50.092;9.182;2024-03-22T09:48:22;155576.50;;;13.94;100.00
38852;BME280;24605;50.092;9.182;2024-03-22T09:50:48;155539.91;;;13.79;100.00
38852;BME280;24605;50.092;9.182;2024-03-22T09:53:20;155543.84;;;13.81;100.00
38852;BME280;24605;50.092;9.182;2024-03-22T09:55:47;155631.38;;;14.16;100.00
38852;BME280;24605;50.092;9.182;2024-03-22T09:58:14;155656.22;;;14.25;100.00
38852;BME280;24605;50.092;9.182;2024-03-22T10:00:42;155636.59;;;14.18;100.00
38852;BME280;24605;50.092;9.182;2024-03-22T10:03:09;155712.44;;;14.48;98.81
38852;BME280;24605;50.092;9.182;2024-03-22T10:05:35;155682.38;;;14.36;99.67
38852;BME280;24605;50.092;9.182;2024-03-22T10:08:05;155650.97;;;14.23;98.12
38852;BME280;24605;50.092;9.182;2024-03-22T10:10:34;155630.09;;;14.15;97.98
38852;BME280;24605;50.092;9.182;2024-03-22T10:13:01;155619.59;;;14.11;100.00
38852;BME280;24605;50.092;9.182;2024-03-22T10:15:26;155768.69;;;14.70;98.78
38852;BME280;24605;50.092;9.182;2024-03-22T10:17:57;155847.09;;;15.01;95.54
38852;BME280;24605;50.092;9.182;2024-03-22T10:20:22;155772.59;;;14.71;96.12
38852;BME280;24605;50.092;9.182;2024-03-22T10:22:56;155831.44;;;14.95;95.17
38852;BME280;24605;50.092;9.182;2024-03-22T10:25:23;155742.47;;;14.60;95.04
38852;BME280;24605;50.092;9.182;2024-03-22T10:27:50;155870.63;;;15.10;93.60
38852;BME280;24605;50.092;9.182;2024-03-22T10:30:16;155877.16;;;15.13;92.88
38852;BME280;24605;50.092;9.182;2024-03-22T10:32:44;155747.72;;;14.62;92.67
38852;BME280;24605;50.092;9.182;2024-03-22T10:35:12;155709.81;;;14.47;91.19
38852;BME280;24605;50.092;9.182;2024-03-22T10:37:39;155834.03;;;14.96;89.50
38852;BME280;24605;50.092;9.182;2024-03-22T10:40:05;155751.63;;;14.63;90.21
38852;BME280;24605;50.092;9.182;2024-03-22T10:42:37;155840.56;;;14.98;90.25
38852;BME280;24605;50.092;9.182;2024-03-22T10:45:04;155858.88;;;15.06;88.88
38852;BME280;24605;50.092;9.182;2024-03-22T10:47:32;155881.13;;;15.14;87.66
38852;BME280;24605;50.092;9.182;2024-03-22T10:50:11;155875.88;;;15.12;86.89
38852;BME280;24605;50.092;9.182;2024-03-22T10:55:12;155775.22;;;14.72;87.32
38852;BME280;24605;50.092;9.182;2024-03-22T10:57:39;155810.50;;;14.86;85.90
38852;BME280;24605;50.092;9.182;2024-03-22T11:00:08;155823.56;;;14.92;86.26
38852;BME280;24605;50.092;9.182;2024-03-22T11:02:37;155870.63;;;15.10;87.01
38852;BME280;24605;50.092;9.182;2024-03-22T11:05:06;155929.50;;;15.33;85.11
38852;BME280;24605;50.092;9.182;2024-03-22T11:07:33;155815.75;;;14.88;86.07
38852;BME280;24605;50.092;9.182;2024-03-22T11:10:02;155823.56;;;14.92;86.70
38852;BME280;24605;50.092;9.182;2024-03-22T11:12:31;155810.50;;;14.86;86.52
38852;BME280;24605;50.092;9.182;2024-03-22T11:14:58;155807.88;;;14.85;88.38
38852;BME280;24605;50.092;9.182;2024-03-22T11:17:25;155881.13;;;15.14;87.27
38852;BME280;24605;50.092;9.182;2024-03-22T11:19:51;155899.41;;;15.22;85.32
38852;BME280;24605;50.092;9.182;2024-03-22T11:22:18;155781.72;;;14.75;83.62
38852;BME280;24605;50.092;9.182;2024-03-22T11:24:43;155763.44;;;14.68;85.75
38852;BME280;24605;50.092;9.182;2024-03-22T11:27:10;155741.16;;;14.59;84.79
38852;BME280;24605;50.092;9.182;2024-03-22T11:29:36;155907.28;;;15.25;84.72
38852;BME280;24605;50.092;9.182;2024-03-22T11:32:04;155747.72;;;14.62;83.98
38852;BME280;24605;50.092;9.182;2024-03-22T11:34:30;155817.03;;;14.89;84.56
38852;BME280;24605;50.092;9.182;2024-03-22T11:36:56;155874.53;;;15.12;84.83
38852;BME280;24605;50.092;9.182;2024-03-22T11:39:22;155806.59;;;14.85;85.52
38852;BME280;24605;50.092;9.182;2024-03-22T11:41:48;155888.94;;;15.17;85.25
38852;BME280;24605;50.092;9.182;2024-03-22T11:44:16;155959.56;;;15.45;83.65
38852;BME280;24605;50.092;9.182;2024-03-22T11:46:44;155882.41;;;15.15;85.09
38852;BME280;24605;50.092;9.182;2024-03-22T11:49:11;155972.66;;;15.50;84.54
38852;BME280;24605;50.092;9.182;2024-03-22T11:51:38;156051.13;;;15.81;81.93
38852;BME280;24605;50.092;9.182;2024-03-22T11:54:04;156120.50;;;16.09;80.64
38852;BME280;24605;50.092;9.182;2024-03-22T11:56:34;156008.00;;;15.64;81.17
38852;BME280;24605;50.092;9.182;2024-03-22T11:59:00;156056.44;;;15.84;81.17
38852;BME280;24605;50.092;9.182;2024-03-22T12:01:28;155977.88;;;15.52;81.59
38852;BME280;24605;50.092;9.182;2024-03-22T12:03:54;156095.66;;;15.99;80.86
38852;BME280;24605;50.092;9.182;2024-03-22T12:06:21;156191.16;;;16.37;79.03
38852;BME280;24605;50.092;9.182;2024-03-22T12:08:47;156200.31;;;16.40;79.56
38852;BME280;24605;50.092;9.182;2024-03-22T12:11:13;156175.47;;;16.31;78.40
38852;BME280;24605;50.092;9.182;2024-03-22T12:13:39;156179.38;;;16.32;79.60
38852;BME280;24605;50.092;9.182;2024-03-22T12:16:06;156133.59;;;16.14;78.91
38852;BME280;24605;50.092;9.182;2024-03-22T12:18:32;156087.78;;;15.96;79.91
38852;BME280;24605;50.092;9.182;2024-03-22T12:20:59;155979.19;;;15.53;81.75
38852;BME280;24605;50.092;9.182;2024-03-22T12:23:25;156027.56;;;15.72;82.21
38852;BME280;24605;50.092;9.182;2024-03-22T12:25:52;156011.91;;;15.66;81.70
38852;BME280;24605;50.092;9.182;2024-03-22T12:28:18;156099.56;;;16.01;81.56
38852;BME280;24605;50.092;9.182;2024-03-22T12:30:44;156166.31;;;16.27;80.47
38852;BME280;24605;50.092;9.182;2024-03-22T12:33:10;156103.53;;;16.02;74.83
38852;BME280;24605;50.092;9.182;2024-03-22T12:35:39;156103.53;;;16.02;75.35
38852;BME280;24605;50.092;9.182;2024-03-22T12:38:05;156134.91;;;16.14;74.86
38852;BME280;24605;50.092;9.182;2024-03-22T12:40:32;156222.59;;;16.49;73.45
38852;BME280;24605;50.092;9.182;2024-03-22T12:42:58;156153.25;;;16.22;74.02
38852;BME280;24605;50.092;9.182;2024-03-22T12:45:25;156264.47;;;16.66;73.06
38852;BME280;24605;50.092;9.182;2024-03-22T12:47:50;156271.00;;;16.68;72.89